Home > Products > Valid Products > TAF

000
FTUS45 KCYS 230500
TAFLAR
TAF
KLAR 230520Z 2306/2406 28008KT P6SM BKN080
     FM231700 28015G22KT P6SM SCT080
     FM240100 28009KT P6SM SKC=



000
FTUS45 KCYS 230500
TAFCYS
TAF
KCYS 230520Z 2306/2406 28010KT P6SM SCT100
     FM231500 30013G19KT P6SM SCT100
     FM231900 29015G24KT P6SM BKN080
     FM232300 31011G18KT P6SM SCT080
     FM240100 31007KT P6SM SKC=



000
FTUS45 KCYS 230500
TAFRWL
TAF
KRWL 230520Z 2306/2406 23011KT P6SM BKN100
     FM231500 26016G25KT P6SM SCT100
     FM240000 27011KT P6SM FEW100
     FM240300 24005KT P6SM SKC=



000
FTUS45 KCYS 230500
TAFCYS
TAF
KCYS 230520Z 2306/2406 28010KT P6SM SCT100
     FM231500 30013G19KT P6SM SCT100
     FM231900 29015G24KT P6SM BKN080
     FM232300 31011G18KT P6SM SCT080
     FM240100 31007KT P6SM SKC=



000
FTUS45 KCYS 230500
TAFLAR
TAF
KLAR 230520Z 2306/2406 28008KT P6SM BKN080
     FM231700 28015G22KT P6SM SCT080
     FM240100 28009KT P6SM SKC=



000
FTUS45 KCYS 230500
TAFRWL
TAF
KRWL 230520Z 2306/2406 23011KT P6SM BKN100
     FM231500 26016G25KT P6SM SCT100
     FM240000 27011KT P6SM FEW100
     FM240300 24005KT P6SM SKC=



000
FTUS45 KCYS 230300 AAA
TAFCYS
TAF AMD
KCYS 230337Z 2304/2324 28010KT P6SM SCT120
     FM231500 30013G19KT P6SM SCT100
     FM231900 29015G24KT P6SM BKN080
     FM232300 31011G18KT P6SM SCT080=



000
FTUS45 KCYS 230300 AAA
TAFCYS
TAF AMD
KCYS 230337Z 2304/2324 28010KT P6SM SCT120
     FM231500 30013G19KT P6SM SCT100
     FM231900 29015G24KT P6SM BKN080
     FM232300 31011G18KT P6SM SCT080=



000
FTUS45 KCYS 222300
TAFRWL
TAF
KRWL 222338Z 2300/2324 23010G17KT P6SM BKN100
     FM231700 25014G21KT P6SM SCT100=



000
FTUS45 KCYS 222300
TAFLAR
TAF
KLAR 222338Z 2300/2324 25010KT P6SM VCSH SCT080 BKN150
     FM230300 28008KT P6SM BKN080
     FM231700 28015G22KT P6SM SCT080=



000
FTUS45 KCYS 222300
TAFCYS
TAF
KCYS 222338Z 2300/2324 VRB06KT P6SM VCSH BKN080
     FM230600 27010KT P6SM SCT120
     FM231500 30013G19KT P6SM SCT100
     FM231900 29015G24KT P6SM BKN080
     FM232300 31011G18KT P6SM SCT080=



000
FTUS45 KCYS 222300
TAFLAR
TAF
KLAR 222338Z 2300/2324 25010KT P6SM VCSH SCT080 BKN150
     FM230300 28008KT P6SM BKN080
     FM231700 28015G22KT P6SM SCT080=



000
FTUS45 KCYS 222300
TAFRWL
TAF
KRWL 222338Z 2300/2324 23010G17KT P6SM BKN100
     FM231700 25014G21KT P6SM SCT100=



000
FTUS45 KCYS 222300
TAFCYS
TAF
KCYS 222338Z 2300/2324 VRB06KT P6SM VCSH BKN080
     FM230600 27010KT P6SM SCT120
     FM231500 30013G19KT P6SM SCT100
     FM231900 29015G24KT P6SM BKN080
     FM232300 31011G18KT P6SM SCT080=



000
FTUS45 KCYS 221800 AAA
TAFCYS
TAF AMD
KCYS 221849Z 2219/2318 24013G21KT P6SM VCTS SCT050 BKN100CB
      TEMPO 2219/2223 28025G40KT 5SM -TSRA BKN050CB
     FM230000 27011KT P6SM VCSH BKN080
     FM230200 28007KT P6SM SCT080
     FM231500 30016G26KT P6SM BKN080=



000
FTUS45 KCYS 221800 AAA
TAFCYS
TAF AMD
KCYS 221849Z 2219/2318 24013G21KT P6SM VCTS SCT050 BKN100CB
      TEMPO 2219/2223 28025G40KT 5SM -TSRA BKN050CB
     FM230000 27011KT P6SM VCSH BKN080
     FM230200 28007KT P6SM SCT080
     FM231500 30016G26KT P6SM BKN080=



000
FTUS45 KCYS 221700
TAFLAR
TAF
KLAR 221732Z 2218/2318 25015G25KT P6SM VCTS SCT050 BKN100CB
      TEMPO 2218/2221 4SM -TSRA BKN050CB
     FM230100 25010KT P6SM BKN150
     FM231100 25011KT P6SM SCT150=



000
FTUS45 KCYS 221700
TAFRWL
TAF
KRWL 221732Z 2218/2318 26014G24KT P6SM SCT050 BKN080
     FM221900 23020G32KT P6SM VCTS SCT050CB BKN080
     FM230100 25014G24KT P6SM SCT080
     FM230800 25010KT P6SM SCT080=



000
FTUS45 KCYS 221700
TAFCYS
TAF
KCYS 221732Z 2218/2318 24013G21KT P6SM VCTS SCT050 BKN100CB
      TEMPO 2219/2223 5SM -TSRA BKN050CB
     FM230000 27011KT P6SM VCSH BKN080
     FM230200 28007KT P6SM SCT080
     FM231500 30016G26KT P6SM BKN080=



000
FTUS45 KCYS 221700
TAFLAR
TAF
KLAR 221732Z 2218/2318 25015G25KT P6SM VCTS SCT050 BKN100CB
      TEMPO 2218/2221 4SM -TSRA BKN050CB
     FM230100 25010KT P6SM BKN150
     FM231100 25011KT P6SM SCT150=



000
FTUS45 KCYS 221700
TAFRWL
TAF
KRWL 221732Z 2218/2318 26014G24KT P6SM SCT050 BKN080
     FM221900 23020G32KT P6SM VCTS SCT050CB BKN080
     FM230100 25014G24KT P6SM SCT080
     FM230800 25010KT P6SM SCT080=



000
FTUS45 KCYS 221700
TAFCYS
TAF
KCYS 221732Z 2218/2318 24013G21KT P6SM VCTS SCT050 BKN100CB
      TEMPO 2219/2223 5SM -TSRA BKN050CB
     FM230000 27011KT P6SM VCSH BKN080
     FM230200 28007KT P6SM SCT080
     FM231500 30016G26KT P6SM BKN080=



000
FTUS45 KCYS 221100
TAFRWL
TAF
KRWL 221120Z 2212/2312 23006KT P6SM -SHRA SCT070 OVC100
     FM221300 24014G24KT P6SM -SHRA VCTS SCT100CB OVC200
     FM222200 27016G28KT P6SM VCTS BKN100CB
     FM230100 26009KT P6SM BKN150=



000
FTUS45 KCYS 221100
TAFCYS
TAF
KCYS 221120Z 2212/2312 22005KT P6SM SCT012 BKN040
     FM221300 21008KT 5SM -SHRA BKN040 BKN100
     FM221600 24013G21KT P6SM -SHRA VCTS SCT050 BKN100CB
     FM222300 27011KT P6SM SCT150=



000
FTUS45 KCYS 221100
TAFRWL
TAF
KRWL 221120Z 2212/2312 23006KT P6SM -SHRA SCT070 OVC100
     FM221300 24014G24KT P6SM -SHRA VCTS SCT100CB OVC200
     FM222200 27016G28KT P6SM VCTS BKN100CB
     FM230100 26009KT P6SM BKN150=



000
FTUS45 KCYS 221100
TAFLAR
TAF
KLAR 221120Z 2212/2312 21007KT P6SM -SHRA BKN070 OVC100
     FM221600 26016G27KT P6SM VCTS SCT050 BKN100CB
     FM230100 22010KT P6SM BKN150=



000
FTUS45 KCYS 221100
TAFLAR
TAF
KLAR 221120Z 2212/2312 21007KT P6SM -SHRA BKN070 OVC100
     FM221600 26016G27KT P6SM VCTS SCT050 BKN100CB
     FM230100 22010KT P6SM BKN150=



000
FTUS45 KCYS 221100
TAFCYS
TAF
KCYS 221120Z 2212/2312 22005KT P6SM SCT012 BKN040
     FM221300 21008KT 5SM -SHRA BKN040 BKN100
     FM221600 24013G21KT P6SM -SHRA VCTS SCT050 BKN100CB
     FM222300 27011KT P6SM SCT150=



000
FTUS45 KCYS 220900 AAA
TAFCYS
TAF AMD
KCYS 220926Z 2209/2306 18006KT P6SM SCT005 BKN012
     FM221300 21012KT P6SM -SHRA BKN100
     FM221600 24013G21KT P6SM -SHRA VCTS SCT050 BKN100CB
     FM222300 27011KT P6SM SCT150=



000
FTUS45 KCYS 220900 AAA
TAFCYS
TAF AMD
KCYS 220926Z 2209/2306 18006KT P6SM SCT005 BKN012
     FM221300 21012KT P6SM -SHRA BKN100
     FM221600 24013G21KT P6SM -SHRA VCTS SCT050 BKN100CB
     FM222300 27011KT P6SM SCT150=



000
FTUS45 KCYS 220500
TAFCYS
TAF
KCYS 220540Z 2206/2306 16010KT P6SM SCT070 BKN200
     FM220800 18011KT P6SM SCT005
     FM221300 21012KT P6SM -SHRA BKN100
     FM221600 24013G21KT P6SM -SHRA VCTS SCT050 BKN100CB
     FM222300 27011KT P6SM SCT150=



000
FTUS45 KCYS 220500
TAFCYS
TAF
KCYS 220540Z 2206/2306 16010KT P6SM SCT070 BKN200
     FM220800 18011KT P6SM SCT005
     FM221300 21012KT P6SM -SHRA BKN100
     FM221600 24013G21KT P6SM -SHRA VCTS SCT050 BKN100CB
     FM222300 27011KT P6SM SCT150=



000
FTUS45 KCYS 220500
TAFLAR
TAF
KLAR 220540Z 2206/2306 14007KT P6SM SCT080 OVC150
     FM220800 21007KT P6SM -SHRA BKN070 OVC100
     FM221600 26016G27KT P6SM VCTS SCT050 BKN100CB
     FM230100 22010KT P6SM BKN150=



000
FTUS45 KCYS 220500
TAFRWL
TAF
KRWL 220540Z 2206/2306 24006KT P6SM BKN120
     FM220900 23010KT P6SM -SHRA SCT070 OVC100
     FM221300 24014G24KT P6SM -SHRA VCTS SCT100CB OVC200
     FM222200 27016G28KT P6SM VCTS BKN100CB
     FM230100 26009KT P6SM BKN150=



000
FTUS45 KCYS 220500
TAFLAR
TAF
KLAR 220540Z 2206/2306 14007KT P6SM SCT080 OVC150
     FM220800 21007KT P6SM -SHRA BKN070 OVC100
     FM221600 26016G27KT P6SM VCTS SCT050 BKN100CB
     FM230100 22010KT P6SM BKN150=



000
FTUS45 KCYS 220500
TAFRWL
TAF
KRWL 220540Z 2206/2306 24006KT P6SM BKN120
     FM220900 23010KT P6SM -SHRA SCT070 OVC100
     FM221300 24014G24KT P6SM -SHRA VCTS SCT100CB OVC200
     FM222200 27016G28KT P6SM VCTS BKN100CB
     FM230100 26009KT P6SM BKN150=



000
FTUS45 KCYS 220400 AAA
TAFLAR
TAF AMD
KLAR 220414Z 2204/2224 14007KT P6SM VCSH BKN070 OVC100
     FM221600 26013G21KT P6SM VCTS SCT050 BKN100CB=



000
FTUS45 KCYS 212300 CCA
TAFCYS
TAF COR
KCYS 212354Z 2200/2224 16010KT P6SM VCSH SCT070 BKN200
     FM220800 18011KT P6SM SCT005
     FM221300 21012KT P6SM BKN100
     FM221600 26013G21KT P6SM VCTS SCT050 BKN100CB=



000
FTUS45 KCYS 212300 CCA
TAFCYS
TAF COR
KCYS 212354Z 2200/2224 16010KT P6SM VCSH SCT070 BKN200
     FM220800 18011KT P6SM SCT005
     FM221300 21012KT P6SM BKN100
     FM221600 26013G21KT P6SM VCTS SCT050 BKN100CB=



000
FTUS45 KCYS 212300 RRA
TAFLAR
TAF
KLAR 212342Z 2200/2224 16020G27KT P6SM -SHRA VCTS BKN060CB OVC120
     FM220200 15013KT P6SM VCSH BKN070 OVC100
     FM221600 26013G21KT P6SM VCTS SCT050 BKN100CB=



000
FTUS45 KCYS 212300 RRA
TAFCYS
TAF
KCYS 212342Z 2200/2224 16010KT P6SM VCSH SCT070 BKN200
     FM221500 26013G21KT P6SM VCTS SCT050 BKN100CB=



000
FTUS45 KCYS 212300 RRA
TAFLAR
TAF
KLAR 212342Z 2200/2224 16020G27KT P6SM -SHRA VCTS BKN060CB OVC120
     FM220200 15013KT P6SM VCSH BKN070 OVC100
     FM221600 26013G21KT P6SM VCTS SCT050 BKN100CB=



000
FTUS45 KCYS 212300 RRA
TAFCYS
TAF
KCYS 212342Z 2200/2224 16010KT P6SM VCSH SCT070 BKN200
     FM221500 26013G21KT P6SM VCTS SCT050 BKN100CB=



000
FTUS45 KCYS 212300 RRA
TAFRWL
TAF
KRWL 212342Z 2200/2224 20009KT P6SM VCSH BKN070 OVC100
     FM220600 20006KT P6SM -SHRA VCTS BKN050CB OVC100
     FM221300 24014G24KT P6SM VCTS SCT100CB OVC200
     FM222200 27016G28KT P6SM VCTS BKN100CB=



000
FTUS45 KCYS 212300 RRA
TAFRWL
TAF
KRWL 212342Z 2200/2224 20009KT P6SM VCSH BKN070 OVC100
     FM220600 20006KT P6SM -SHRA VCTS BKN050CB OVC100
     FM221300 24014G24KT P6SM VCTS SCT100CB OVC200
     FM222200 27016G28KT P6SM VCTS BKN100CB=



000
FTUS45 KCYS 211700 RRA
TAFLAR
TAF
KLAR 211742Z 2118/2218 16020G27KT P6SM BKN120
     FM220100 15013KT P6SM VCSH BKN070 OVC100=



000
FTUS45 KCYS 211700 RRA
TAFRWL
TAF
KRWL 211742Z 2118/2218 16010KT P6SM BKN120
     FM212200 10009KT P6SM VCSH BKN070 OVC100
     FM220600 20006KT P6SM -SHRA BKN050=



000
FTUS45 KCYS 211700 RRA
TAFCYS
TAF
KCYS 211742Z 2118/2218 16013G20KT P6SM SCT070 BKN120
     FM220100 15008KT P6SM VCSH BKN070 OVC100=



000
FTUS45 KCYS 211700 RRA
TAFRWL
TAF
KRWL 211742Z 2118/2218 16010KT P6SM BKN120
     FM212200 10009KT P6SM VCSH BKN070 OVC100
     FM220600 20006KT P6SM -SHRA BKN050=



000
FTUS45 KCYS 211100
TAFCYS
TAF
KCYS 211120Z 2112/2212 14008KT P6SM BKN050
     FM211600 16014G24KT P6SM BKN120
     FM220100 15012KT P6SM VCSH BKN050 OVC100=



000
FTUS45 KCYS 211100
TAFRWL
TAF
KRWL 211120Z 2112/2212 06010KT P6SM SCT150
     FM211800 21012G22KT P6SM BKN120
     FM212300 10009KT P6SM VCTS BKN050CB OVC100=



000
FTUS45 KCYS 211100
TAFLAR
TAF
KLAR 211120Z 2112/2212 17010KT P6SM SCT015
     FM211400 16014G22KT P6SM BKN120
     FM212300 15012KT P6SM VCTS BKN050CB OVC100=



000
FTUS45 KCYS 210500
TAFCYS
TAF
KCYS 210523Z 2106/2206 08008KT P6SM BKN070
     FM211700 17012G23KT P6SM SCT150
     FM220100 15011KT P6SM SCT050 OVC120=



000
FTUS45 KCYS 210500
TAFRWL
TAF
KRWL 210523Z 2106/2206 04014KT P6SM SKC
     FM210800 06005KT P6SM SKC
     FM211800 20008KT P6SM SCT150
     FM212300 17011KT P6SM VCTS BKN100CB=



000
FTUS45 KCYS 210500
TAFLAR
TAF
KLAR 210523Z 2106/2206 09013KT P6SM SKC
     FM210800 15007KT P6SM SCT070
     FM211000 16010KT P6SM FEW015
     FM211400 15014G20KT P6SM SCT150
     FM212300 17011KT P6SM VCTS BKN100CB=



000
FTUS45 KCYS 210200 AAA
TAFRWL
TAF AMD
KRWL 210231Z 2103/2124 04014KT P6SM SKC
     FM210500 06005KT P6SM SKC
     FM211800 20008KT P6SM SCT150=



000
FTUS45 KCYS 210200 AAA
TAFRWL
TAF AMD
KRWL 210231Z 2103/2124 04014KT P6SM SKC
     FM210500 06005KT P6SM SKC
     FM211800 20008KT P6SM SCT150=



000
FTUS45 KCYS 202300
TAFRWL
TAF
KRWL 202340Z 2100/2124 06005KT P6SM SKC
     FM211800 20008KT P6SM SCT150=



000
FTUS45 KCYS 202300
TAFLAR
TAF
KLAR 202340Z 2100/2124 05011KT P6SM SKC
     FM210600 15007KT P6SM FEW200
     FM211000 16010KT P6SM FEW015
     FM211400 15014KT P6SM SCT150=



000
FTUS45 KCYS 202300
TAFCYS
TAF
KCYS 202340Z 2100/2124 05009G15KT P6SM FEW070
     FM210100 08008KT P6SM FEW100
     FM211700 17012G23KT P6SM SCT150=



000
FTUS45 KCYS 202300
TAFLAR
TAF
KLAR 202340Z 2100/2124 05011KT P6SM SKC
     FM210600 15007KT P6SM FEW200
     FM211000 16010KT P6SM FEW015
     FM211400 15014KT P6SM SCT150=



000
FTUS45 KCYS 202300
TAFCYS
TAF
KCYS 202340Z 2100/2124 05009G15KT P6SM FEW070
     FM210100 08008KT P6SM FEW100
     FM211700 17012G23KT P6SM SCT150=



000
FTUS45 KCYS 202300
TAFRWL
TAF
KRWL 202340Z 2100/2124 06005KT P6SM SKC
     FM211800 20008KT P6SM SCT150=



000
FTUS45 KCYS 201700
TAFLAR
TAF
KLAR 201730Z 2018/2118 VRB05KT P6SM SKC
     FM202000 05011KT P6SM SKC
     FM210600 15007KT P6SM FEW200=



000
FTUS45 KCYS 201700
TAFRWL
TAF
KRWL 201730Z 2018/2118 VRB05KT P6SM SKC
     FM202000 06010KT P6SM SKC=



000
FTUS45 KCYS 201700
TAFCYS
TAF
KCYS 201730Z 2018/2118 03007KT P6SM SKC
     FM202100 05009G15KT P6SM SKC
     FM210100 08008KT P6SM FEW200=



000
FTUS45 KCYS 201100
TAFCYS
TAF
KCYS 201136Z 2012/2112 36007KT P6SM SKC
     FM202100 05012G18KT P6SM SCT150
     FM210100 08008KT P6SM SCT100
     FM210600 17006KT P6SM VCSH SCT015 BKN050=



000
FTUS45 KCYS 201100
TAFRWL
TAF
KRWL 201136Z 2012/2112 VRB05KT P6SM SKC
     FM201900 03012KT P6SM FEW150
     FM210100 06010KT P6SM SKC=



000
FTUS45 KCYS 201100
TAFLAR
TAF
KLAR 201136Z 2012/2112 VRB05KT P6SM SKC
     FM202000 05012G18KT P6SM SCT150
     FM210000 10008KT P6SM SCT100
     FM210600 15007KT P6SM VCSH SCT015 BKN050=



000
FTUS45 KCYS 201100
TAFLAR
TAF
KLAR 201136Z 2012/2112 VRB05KT P6SM SKC
     FM202000 05012G18KT P6SM SCT150
     FM210000 10008KT P6SM SCT100
     FM210600 15007KT P6SM VCSH SCT015 BKN050=



000
FTUS45 KCYS 201100
TAFRWL
TAF
KRWL 201136Z 2012/2112 VRB05KT P6SM SKC
     FM201900 03012KT P6SM FEW150
     FM210100 06010KT P6SM SKC=



000
FTUS45 KCYS 201100
TAFCYS
TAF
KCYS 201136Z 2012/2112 36007KT P6SM SKC
     FM202100 05012G18KT P6SM SCT150
     FM210100 08008KT P6SM SCT100
     FM210600 17006KT P6SM VCSH SCT015 BKN050=



    US Dept of Commerce
    National Oceanic and Atmospheric Administration
    National Weather Service
    1325 East West Highway
    Silver Spring, MD 20910
    Page Author: NWS Internet Services Team
Disclaimer
Information Quality
Credits
Glossary
Privacy Policy
Freedom of Information Act (FOIA)
About Us
Career Opportunities